Time;durP1;ratioP1;P1;durP2;ratioP2;P2;SDS_P1;SDS_P2;PMS_P1;PMS_P2;Temp;Humidity;BMP_temperature;BMP_pressure;BME280_temperature;BME280_humidity;BME280_pressure;Samples;Min_cycle;Max_cycle;Signal;HPM_P1;HPM_P2
2021/08/08 00:00:41;;;;;;;6.90;3.25;;;;;;;;;;5070655;28;20040;-61
2021/08/08 00:03:07;;;;;;;3.78;2.67;;;;;;;;;;5089670;28;20024;-61
2021/08/08 00:05:33;;;;;;;4.85;2.95;;;;;;;;;;5091452;28;20120;-61
2021/08/08 00:07:59;;;;;;;4.53;2.80;;;;;;;;;;5087502;28;20417;-61
2021/08/08 00:10:25;;;;;;;6.70;2.65;;;;;;;;;;5065324;28;20040;-61
2021/08/08 00:12:51;;;;;;;5.60;2.50;;;;;;;;;;5080297;28;20028;-61
2021/08/08 00:15:17;;;;;;;12.60;3.03;;;;;;;;;;5086350;28;20021;-61
2021/08/08 00:17:43;;;;;;;4.57;3.00;;;;;;;;;;5089063;28;20056;-61
2021/08/08 00:20:10;;;;;;;8.02;2.55;;;;;;;;;;5085758;28;20036;-61
2021/08/08 00:22:36;;;;;;;5.20;2.88;;;;;;;;;;5077961;28;20039;-61
2021/08/08 00:25:02;;;;;;;5.97;2.70;;;;;;;;;;5069254;28;20039;-61
2021/08/08 00:27:28;;;;;;;3.45;2.67;;;;;;;;;;5086885;28;20488;-61
2021/08/08 00:29:54;;;;;;;6.35;2.92;;;;;;;;;;5072777;28;20028;-61
2021/08/08 00:32:22;;;;;;;4.35;2.90;;;;;;;;;;5083024;28;20343;-62
2021/08/08 00:34:48;;;;;;;3.90;3.05;;;;;;;;;;5078798;28;20024;-61
2021/08/08 00:37:14;;;;;;;7.72;2.72;;;;;;;;;;5066631;28;20074;-61
2021/08/08 00:39:40;;;;;;;4.35;2.70;;;;;;;;;;5078913;28;20028;-62
2021/08/08 00:42:06;;;;;;;4.47;3.30;;;;;;;;;;5078958;28;20103;-61
2021/08/08 00:44:32;;;;;;;5.93;3.00;;;;;;;;;;5089096;28;20032;-62
2021/08/08 00:46:58;;;;;;;4.38;3.03;;;;;;;;;;5076510;28;20469;-61
2021/08/08 00:49:24;;;;;;;5.30;2.55;;;;;;;;;;5078294;28;20115;-61
2021/08/08 00:51:51;;;;;;;5.93;2.78;;;;;;;;;;5063776;28;20110;-61
2021/08/08 00:54:17;;;;;;;8.27;3.20;;;;;;;;;;5082506;28;20028;-61
2021/08/08 00:56:43;;;;;;;3.78;2.75;;;;;;;;;;5068087;28;20040;-61
2021/08/08 00:59:09;;;;;;;4.45;3.05;;;;;;;;;;5066405;28;20016;-61
2021/08/08 01:01:40;;;;;;;5.50;2.88;;;;;;;;;;5083337;28;20433;-61
2021/08/08 01:04:06;;;;;;;3.67;2.80;;;;;;;;;;5084475;28;20025;-61
2021/08/08 01:06:38;;;;;;;4.40;2.38;;;;;;;;;;5065334;28;20035;-60
2021/08/08 01:09:05;;;;;;;5.80;3.10;;;;;;;;;;5086710;28;20403;-61
2021/08/08 01:11:32;;;;;;;5.20;3.30;;;;;;;;;;5086579;28;20051;-61
2021/08/08 01:13:59;;;;;;;5.50;3.08;;;;;;;;;;5080181;28;20040;-61
2021/08/08 01:16:25;;;;;;;7.07;3.38;;;;;;;;;;5080278;28;20111;-61
2021/08/08 01:18:52;;;;;;;6.15;3.00;;;;;;;;;;5085597;28;20036;-61
2021/08/08 01:21:21;;;;;;;4.50;2.97;;;;;;;;;;5070396;28;20075;-61
2021/08/08 01:23:56;;;;;;;4.00;3.10;;;;;;;;;;5074361;28;20025;-61
2021/08/08 01:26:22;;;;;;;4.05;2.58;;;;;;;;;;5078509;28;20051;-61
2021/08/08 01:28:49;;;;;;;4.55;2.60;;;;;;;;;;5058371;28;20128;-62
2021/08/08 01:31:15;;;;;;;3.97;2.47;;;;;;;;;;5070485;28;20035;-61
2021/08/08 01:33:41;;;;;;;5.80;3.00;;;;;;;;;;5089935;28;20368;-61
2021/08/08 01:36:07;;;;;;;3.22;2.70;;;;;;;;;;5079584;28;20036;-61
2021/08/08 01:38:34;;;;;;;5.53;2.58;;;;;;;;;;5090825;28;20093;-61
2021/08/08 01:41:02;;;;;;;12.40;3.03;;;;;;;;;;5093634;28;20020;-61
2021/08/08 01:43:32;;;;;;;5.85;2.60;;;;;;;;;;5063130;28;20369;-61
2021/08/08 01:46:06;;;;;;;8.15;3.22;;;;;;;;;;5075561;28;20028;-62
2021/08/08 01:48:33;;;;;;;5.82;2.95;;;;;;;;;;5072465;28;20027;-61
2021/08/08 01:51:00;;;;;;;3.95;2.40;;;;;;;;;;5071135;28;20132;-62
2021/08/08 01:53:27;;;;;;;5.53;2.75;;;;;;;;;;5088040;28;20031;-61
2021/08/08 01:55:53;;;;;;;7.15;2.78;;;;;;;;;;5080531;28;20024;-62
2021/08/08 01:58:19;;;;;;;3.65;2.80;;;;;;;;;;5069084;28;20051;-61
2021/08/08 02:00:49;;;;;;;6.35;3.25;;;;;;;;;;5080155;28;20036;-61
2021/08/08 02:03:15;;;;;;;3.75;2.88;;;;;;;;;;5091553;28;20529;-61
2021/08/08 02:05:41;;;;;;;5.00;3.10;;;;;;;;;;5089996;28;20376;-62
2021/08/08 02:08:07;;;;;;;4.07;2.47;;;;;;;;;;5065927;28;20036;-61
2021/08/08 02:10:33;;;;;;;4.82;2.78;;;;;;;;;;5056325;28;20049;-61
2021/08/08 02:12:59;;;;;;;8.30;3.28;;;;;;;;;;5069846;28;20055;-61
2021/08/08 02:15:25;;;;;;;5.72;2.80;;;;;;;;;;5079235;28;20072;-61
2021/08/08 02:17:51;;;;;;;4.60;2.70;;;;;;;;;;5060101;28;20037;-61
2021/08/08 02:20:18;;;;;;;11.10;2.92;;;;;;;;;;5055668;28;20342;-61
2021/08/08 02:22:45;;;;;;;10.02;3.10;;;;;;;;;;5063851;28;20027;-61
2021/08/08 02:25:11;;;;;;;5.75;3.53;;;;;;;;;;5068446;28;20009;-62
2021/08/08 02:27:37;;;;;;;5.18;2.70;;;;;;;;;;5068115;28;20028;-61
2021/08/08 02:30:06;;;;;;;4.25;2.83;;;;;;;;;;5067882;28;20395;-61
2021/08/08 02:32:32;;;;;;;5.95;3.15;;;;;;;;;;5088350;28;20027;-61
2021/08/08 02:34:58;;;;;;;6.05;2.55;;;;;;;;;;5087492;28;20039;-62
2021/08/08 02:37:24;;;;;;;6.85;3.10;;;;;;;;;;5055768;28;20071;-61
2021/08/08 02:39:50;;;;;;;4.13;2.53;;;;;;;;;;5085565;28;20032;-61
2021/08/08 02:42:16;;;;;;;4.53;2.38;;;;;;;;;;5090169;28;20494;-61
2021/08/08 02:44:42;;;;;;;5.07;2.42;;;;;;;;;;5056507;28;20037;-62
2021/08/08 02:47:08;;;;;;;3.35;2.45;;;;;;;;;;5068265;28;20054;-62
2021/08/08 02:49:34;;;;;;;3.85;2.30;;;;;;;;;;5082607;28;20016;-61
2021/08/08 02:52:00;;;;;;;4.80;2.80;;;;;;;;;;5079846;28;20028;-61
2021/08/08 02:54:26;;;;;;;5.82;2.30;;;;;;;;;;5063541;28;20350;-61
2021/08/08 02:56:52;;;;;;;6.78;2.85;;;;;;;;;;5077716;28;20093;-61
2021/08/08 02:59:18;;;;;;;4.07;2.90;;;;;;;;;;5062372;28;20025;-61
2021/08/08 03:01:44;;;;;;;3.58;2.25;;;;;;;;;;5065918;28;20034;-61
2021/08/08 03:04:10;;;;;;;5.72;2.58;;;;;;;;;;5058880;28;20044;-61
2021/08/08 03:06:36;;;;;;;5.22;2.63;;;;;;;;;;5060856;28;20037;-61
2021/08/08 03:09:03;;;;;;;5.13;2.75;;;;;;;;;;5054074;28;20032;-61
2021/08/08 03:11:29;;;;;;;7.90;2.83;;;;;;;;;;5059785;28;20047;-61
2021/08/08 03:13:55;;;;;;;4.68;2.53;;;;;;;;;;5055668;28;20044;-61
2021/08/08 03:16:21;;;;;;;3.03;2.40;;;;;;;;;;5078043;28;20036;-62
2021/08/08 03:18:47;;;;;;;5.18;3.00;;;;;;;;;;5081301;28;20043;-61
2021/08/08 03:21:13;;;;;;;6.22;2.55;;;;;;;;;;5058349;28;20150;-60
2021/08/08 03:23:39;;;;;;;5.82;2.30;;;;;;;;;;5072809;28;20021;-61
2021/08/08 03:26:05;;;;;;;9.48;3.05;;;;;;;;;;5064591;28;20036;-61
2021/08/08 03:28:31;;;;;;;4.15;2.97;;;;;;;;;;5071863;28;20028;-61
2021/08/08 03:30:57;;;;;;;7.68;2.90;;;;;;;;;;5070651;28;20346;-61
2021/08/08 03:33:22;;;;;;;8.30;2.90;;;;;;;;;;5075969;28;20024;-61
2021/08/08 03:35:48;;;;;;;3.65;2.50;;;;;;;;;;5058643;28;20082;-61
2021/08/08 03:38:14;;;;;;;9.45;2.63;;;;;;;;;;5057304;28;20495;-61
2021/08/08 03:40:40;;;;;;;5.63;2.80;;;;;;;;;;5070143;28;20456;-61
2021/08/08 03:43:06;;;;;;;6.25;2.75;;;;;;;;;;5071402;28;20032;-62
2021/08/08 03:45:33;;;;;;;2.88;2.22;;;;;;;;;;5066343;28;20505;-62
2021/08/08 03:47:59;;;;;;;4.28;2.47;;;;;;;;;;5079875;28;20030;-61
2021/08/08 03:50:25;;;;;;;7.40;2.90;;;;;;;;;;5080415;28;20032;-62
2021/08/08 03:52:51;;;;;;;3.63;1.98;;;;;;;;;;5071341;28;20028;-62
2021/08/08 03:55:18;;;;;;;5.32;2.00;;;;;;;;;;5061277;28;20078;-62
2021/08/08 03:57:43;;;;;;;4.38;2.28;;;;;;;;;;5062120;28;20036;-61
2021/08/08 04:00:10;;;;;;;2.50;2.03;;;;;;;;;;5058601;28;20025;-61
2021/08/08 04:02:36;;;;;;;6.05;2.50;;;;;;;;;;5075407;28;20008;-61
2021/08/08 04:05:02;;;;;;;2.55;2.20;;;;;;;;;;5067971;28;20465;-61
2021/08/08 04:07:28;;;;;;;3.92;2.65;;;;;;;;;;5050798;28;20587;-61
2021/08/08 04:09:54;;;;;;;3.55;2.50;;;;;;;;;;5073316;28;20055;-61
2021/08/08 04:12:20;;;;;;;5.68;2.00;;;;;;;;;;5077392;28;20040;-61
2021/08/08 04:14:45;;;;;;;4.80;2.08;;;;;;;;;;5071225;28;20032;-61
2021/08/08 04:17:11;;;;;;;2.65;2.22;;;;;;;;;;5054838;28;20036;-62
2021/08/08 04:19:38;;;;;;;5.65;2.20;;;;;;;;;;5069829;28;20058;-62
2021/08/08 04:22:04;;;;;;;4.30;2.10;;;;;;;;;;5064984;28;20025;-62
2021/08/08 04:24:30;;;;;;;3.00;2.22;;;;;;;;;;5059954;28;20599;-61
2021/08/08 04:26:56;;;;;;;5.95;1.98;;;;;;;;;;5080365;28;20091;-61
2021/08/08 04:29:21;;;;;;;4.18;1.92;;;;;;;;;;5083815;28;20376;-62
2021/08/08 04:31:48;;;;;;;7.95;1.92;;;;;;;;;;5077211;28;20047;-62
2021/08/08 04:34:14;;;;;;;3.03;1.77;;;;;;;;;;5067311;28;20064;-62
2021/08/08 04:36:40;;;;;;;3.50;2.00;;;;;;;;;;5056319;28;20134;-62
2021/08/08 04:39:06;;;;;;;4.18;1.92;;;;;;;;;;5071752;28;20028;-61
2021/08/08 04:41:32;;;;;;;2.50;1.60;;;;;;;;;;5058815;28;20025;-61
2021/08/08 04:43:58;;;;;;;3.75;1.98;;;;;;;;;;5073603;28;20024;-62
2021/08/08 04:46:24;;;;;;;5.13;1.90;;;;;;;;;;5081921;28;20586;-62
2021/08/08 04:48:50;;;;;;;4.10;1.80;;;;;;;;;;5068403;28;20025;-61
2021/08/08 04:51:16;;;;;;;3.35;1.75;;;;;;;;;;5061250;28;20590;-61
2021/08/08 04:53:42;;;;;;;2.75;1.58;;;;;;;;;;5071170;28;20387;-61
2021/08/08 04:56:08;;;;;;;2.95;1.50;;;;;;;;;;5068477;28;20117;-62
2021/08/08 04:58:34;;;;;;;4.60;1.70;;;;;;;;;;5073238;28;20027;-62
2021/08/08 05:01:00;;;;;;;3.47;1.38;;;;;;;;;;5071776;28;20380;-62
2021/08/08 05:03:27;;;;;;;3.60;1.75;;;;;;;;;;5089739;28;20043;-61
2021/08/08 05:05:53;;;;;;;1.98;1.42;;;;;;;;;;5054681;28;20036;-61
2021/08/08 05:08:19;;;;;;;3.17;1.60;;;;;;;;;;5065380;28;20033;-62
2021/08/08 05:10:45;;;;;;;6.38;1.67;;;;;;;;;;5074344;28;20048;-62
2021/08/08 05:13:11;;;;;;;5.85;1.60;;;;;;;;;;5083093;28;20108;-62
2021/08/08 05:15:37;;;;;;;3.15;1.63;;;;;;;;;;5063813;28;20029;-62
2021/08/08 05:18:03;;;;;;;6.18;1.75;;;;;;;;;;5076901;28;20032;-62
2021/08/08 05:20:29;;;;;;;7.22;1.52;;;;;;;;;;5070703;28;20127;-61
2021/08/08 05:22:55;;;;;;;3.17;1.50;;;;;;;;;;5073891;28;20032;-62
2021/08/08 05:25:21;;;;;;;3.42;1.30;;;;;;;;;;5071508;28;20441;-62
2021/08/08 05:27:47;;;;;;;3.35;1.30;;;;;;;;;;5074327;28;20108;-62
2021/08/08 05:30:13;;;;;;;2.50;1.30;;;;;;;;;;5073247;28;20039;-62
2021/08/08 05:32:39;;;;;;;6.55;1.40;;;;;;;;;;5061198;28;20600;-62
2021/08/08 05:35:06;;;;;;;3.40;1.20;;;;;;;;;;5057024;28;20556;-62
2021/08/08 05:37:33;;;;;;;2.30;0.98;;;;;;;;;;5053263;28;20024;-62
2021/08/08 05:40:04;;;;;;;2.67;1.25;;;;;;;;;;5077150;28;20044;-62
2021/08/08 05:42:30;;;;;;;4.93;1.30;;;;;;;;;;5066926;28;20354;-62
2021/08/08 05:44:56;;;;;;;2.40;1.00;;;;;;;;;;5063321;28;20031;-62
2021/08/08 05:47:22;;;;;;;3.15;0.90;;;;;;;;;;5074391;28;20047;-62
2021/08/08 05:49:48;;;;;;;2.13;0.82;;;;;;;;;;5088680;28;20031;-62
2021/08/08 05:52:14;;;;;;;1.42;0.90;;;;;;;;;;5089487;28;20035;-62
2021/08/08 05:54:40;;;;;;;2.35;0.90;;;;;;;;;;5068079;28;20056;-62
2021/08/08 05:57:06;;;;;;;1.85;0.90;;;;;;;;;;5064818;28;20032;-62
2021/08/08 05:59:32;;;;;;;1.30;0.63;;;;;;;;;;5058838;28;20381;-62
2021/08/08 06:01:58;;;;;;;3.95;1.35;;;;;;;;;;5079649;28;20028;-62
2021/08/08 06:04:24;;;;;;;1.40;0.80;;;;;;;;;;5088358;28;20089;-62
2021/08/08 06:06:52;;;;;;;3.15;1.17;;;;;;;;;;5089697;28;20028;-62
2021/08/08 06:09:18;;;;;;;1.83;0.77;;;;;;;;;;5063999;28;20024;-62
2021/08/08 06:11:44;;;;;;;1.10;0.60;;;;;;;;;;5063022;28;20390;-62
2021/08/08 06:14:10;;;;;;;1.50;0.85;;;;;;;;;;5077927;28;20032;-62
2021/08/08 06:16:36;;;;;;;3.08;0.90;;;;;;;;;;5078150;28;20115;-62
2021/08/08 06:19:02;;;;;;;1.05;0.70;;;;;;;;;;5089194;28;20504;-62
2021/08/08 06:21:28;;;;;;;2.45;0.88;;;;;;;;;;5061780;28;20047;-62
2021/08/08 06:23:54;;;;;;;2.08;1.02;;;;;;;;;;5070960;28;20040;-62
2021/08/08 06:26:20;;;;;;;2.45;0.98;;;;;;;;;;5067812;28;20017;-62
2021/08/08 06:28:46;;;;;;;1.40;0.90;;;;;;;;;;5061281;28;20481;-62
2021/08/08 06:31:12;;;;;;;2.05;0.80;;;;;;;;;;5076155;28;20418;-62
2021/08/08 06:33:38;;;;;;;1.48;0.80;;;;;;;;;;5055579;28;20481;-62
2021/08/08 06:36:04;;;;;;;2.75;1.00;;;;;;;;;;5058476;28;20054;-62
2021/08/08 06:38:30;;;;;;;3.30;1.05;;;;;;;;;;5064198;28;20036;-62
2021/08/08 06:40:56;;;;;;;1.25;0.70;;;;;;;;;;5066204;28;20059;-62
2021/08/08 06:43:22;;;;;;;2.58;0.90;;;;;;;;;;5073060;28;20023;-62
2021/08/08 06:45:50;;;;;;;1.42;0.70;;;;;;;;;;5054335;28;20400;-62
2021/08/08 06:48:16;;;;;;;1.85;0.82;;;;;;;;;;5053336;28;20104;-62
2021/08/08 06:50:42;;;;;;;4.35;1.00;;;;;;;;;;5073669;28;20052;-63
2021/08/08 06:53:08;;;;;;;3.72;0.95;;;;;;;;;;5054640;28;20056;-62
2021/08/08 06:55:34;;;;;;;4.82;0.88;;;;;;;;;;5052958;28;20017;-62
2021/08/08 06:58:00;;;;;;;1.15;0.70;;;;;;;;;;5062164;28;20499;-62
2021/08/08 07:00:26;;;;;;;1.10;0.80;;;;;;;;;;5054747;28;20044;-62
2021/08/08 07:02:54;;;;;;;6.82;0.93;;;;;;;;;;5063701;28;20040;-63
2021/08/08 07:05:20;;;;;;;1.42;0.65;;;;;;;;;;5063324;28;20025;-63
2021/08/08 07:07:46;;;;;;;1.23;0.50;;;;;;;;;;5058242;28;20476;-63
2021/08/08 07:10:12;;;;;;;2.13;0.63;;;;;;;;;;5071475;28;20040;-62
2021/08/08 07:12:38;;;;;;;1.50;0.90;;;;;;;;;;5065502;28;20032;-62
2021/08/08 07:15:06;;;;;;;1.90;0.50;;;;;;;;;;5054835;28;20032;-62
2021/08/08 07:17:32;;;;;;;2.28;0.95;;;;;;;;;;5056922;28;20033;-62
2021/08/08 07:19:58;;;;;;;1.45;0.50;;;;;;;;;;5080873;28;20028;-62
2021/08/08 07:22:24;;;;;;;1.70;0.60;;;;;;;;;;5061711;28;20021;-62
2021/08/08 07:24:51;;;;;;;1.83;0.80;;;;;;;;;;5071738;28;20021;-62
2021/08/08 07:27:17;;;;;;;1.70;0.60;;;;;;;;;;5086164;28;20035;-62
2021/08/08 07:29:43;;;;;;;2.17;0.60;;;;;;;;;;5054408;28;20116;-62
2021/08/08 07:32:09;;;;;;;11.65;1.05;;;;;;;;;;5058478;28;20448;-62
2021/08/08 07:34:35;;;;;;;2.05;0.70;;;;;;;;;;5068529;28;20029;-62
2021/08/08 07:37:01;;;;;;;2.53;0.47;;;;;;;;;;5054435;28;20090;-62
2021/08/08 07:39:29;;;;;;;2.97;0.70;;;;;;;;;;5054505;28;20609;-62
2021/08/08 07:41:55;;;;;;;1.35;0.50;;;;;;;;;;5070075;28;20057;-61
2021/08/08 07:44:21;;;;;;;3.13;0.80;;;;;;;;;;5064292;28;20040;-62
2021/08/08 07:46:47;;;;;;;0.82;0.60;;;;;;;;;;5062957;28;20028;-62
2021/08/08 07:49:13;;;;;;;3.17;0.60;;;;;;;;;;5055481;28;20108;-62
2021/08/08 07:51:38;;;;;;;0.93;0.50;;;;;;;;;;5064978;28;20028;-62
2021/08/08 07:54:04;;;;;;;3.35;0.90;;;;;;;;;;5062065;28;20040;-62
2021/08/08 07:56:31;;;;;;;1.52;0.63;;;;;;;;;;5066436;28;20429;-62
2021/08/08 07:58:57;;;;;;;16.35;1.10;;;;;;;;;;5068278;28;20078;-61
2021/08/08 08:01:23;;;;;;;1.00;0.70;;;;;;;;;;5065635;28;20071;-61
2021/08/08 08:03:49;;;;;;;1.00;0.70;;;;;;;;;;5056708;28;20024;-62
2021/08/08 08:06:15;;;;;;;1.65;0.60;;;;;;;;;;5067497;28;20033;-61
2021/08/08 08:08:42;;;;;;;4.18;0.60;;;;;;;;;;5071518;28;20767;-61
2021/08/08 08:11:08;;;;;;;2.10;0.90;;;;;;;;;;5064175;28;20078;-62
2021/08/08 08:13:34;;;;;;;2.70;1.00;;;;;;;;;;5072199;28;20029;-61
2021/08/08 08:16:00;;;;;;;0.70;0.45;;;;;;;;;;5061474;28;20021;-61
2021/08/08 08:18:26;;;;;;;1.48;0.60;;;;;;;;;;5075236;28;20103;-61
2021/08/08 08:20:52;;;;;;;3.13;0.80;;;;;;;;;;5058209;28;20031;-61
2021/08/08 08:23:20;;;;;;;0.93;0.47;;;;;;;;;;5065575;28;20029;-61
2021/08/08 08:25:46;;;;;;;0.68;0.45;;;;;;;;;;5064824;28;20032;-61
2021/08/08 08:28:12;;;;;;;2.10;0.70;;;;;;;;;;5064943;28;20052;-61
2021/08/08 08:30:39;;;;;;;2.95;0.82;;;;;;;;;;5066372;28;20028;-61
2021/08/08 08:33:06;;;;;;;0.98;0.60;;;;;;;;;;5062037;28;20484;-61
2021/08/08 08:35:32;;;;;;;0.95;0.55;;;;;;;;;;5058012;28;20032;-61
2021/08/08 08:37:58;;;;;;;3.13;0.70;;;;;;;;;;5057310;28;20071;-61
2021/08/08 08:40:24;;;;;;;1.33;0.60;;;;;;;;;;5064685;28;20046;-61
2021/08/08 08:42:51;;;;;;;1.38;0.52;;;;;;;;;;5083730;28;20059;-61
2021/08/08 08:45:18;;;;;;;1.83;0.80;;;;;;;;;;5074943;28;20039;-61
2021/08/08 08:47:45;;;;;;;1.98;0.93;;;;;;;;;;5061858;28;20520;-61
2021/08/08 08:50:12;;;;;;;1.73;0.68;;;;;;;;;;5078430;28;20074;-61
2021/08/08 08:52:38;;;;;;;1.83;0.70;;;;;;;;;;5064245;28;20029;-61
2021/08/08 08:55:04;;;;;;;1.95;0.80;;;;;;;;;;5056989;28;20052;-61
2021/08/08 08:57:31;;;;;;;2.92;0.70;;;;;;;;;;5063685;28;20040;-61
2021/08/08 08:59:58;;;;;;;1.23;0.57;;;;;;;;;;5059751;28;20119;-61
2021/08/08 09:02:24;;;;;;;1.73;0.75;;;;;;;;;;5057404;28;20083;-61
2021/08/08 09:04:50;;;;;;;5.18;0.98;;;;;;;;;;5060808;28;20052;-61
2021/08/08 09:07:17;;;;;;;1.15;0.40;;;;;;;;;;5074040;28;20032;-61
2021/08/08 09:09:42;;;;;;;0.95;0.57;;;;;;;;;;5078379;28;20784;-61
2021/08/08 09:12:08;;;;;;;1.63;0.88;;;;;;;;;;5082358;28;20150;-61
2021/08/08 09:14:35;;;;;;;2.30;0.68;;;;;;;;;;5062604;28;20453;-61
2021/08/08 09:17:01;;;;;;;1.65;0.68;;;;;;;;;;5060916;28;20044;-61
2021/08/08 09:19:31;;;;;;;1.50;0.60;;;;;;;;;;5069742;28;20029;-61
2021/08/08 09:21:58;;;;;;;1.35;0.50;;;;;;;;;;5075426;28;20071;-61
2021/08/08 09:24:31;;;;;;;1.80;0.60;;;;;;;;;;5063019;28;20025;-61
2021/08/08 09:26:57;;;;;;;;;;;;;;;;;;5056832;28;20020;-61
2021/08/08 09:29:23;;;;;;;4.32;0.50;;;;;;;;;;5062152;28;19953;-61
2021/08/08 09:31:50;;;;;;;0.40;0.40;;;;;;;;;;5082408;28;20043;-61
2021/08/08 09:34:25;;;;;;;3.78;0.80;;;;;;;;;;5065644;28;20117;-62
2021/08/08 09:36:51;;;;;;;2.08;0.68;;;;;;;;;;5075807;28;20119;-61
2021/08/08 09:39:30;;;;;;;2.03;0.60;;;;;;;;;;5062045;28;20032;-61
2021/08/08 09:42:10;;;;;;;0.90;0.40;;;;;;;;;;5070051;28;20059;-62
2021/08/08 09:44:37;;;;;;;1.02;0.55;;;;;;;;;;5062805;28;20029;-61
2021/08/08 09:47:03;;;;;;;2.25;0.52;;;;;;;;;;5060294;28;20396;-62
2021/08/08 09:49:29;;;;;;;0.88;0.50;;;;;;;;;;5062742;28;20548;-61
2021/08/08 09:51:55;;;;;;;2.90;0.68;;;;;;;;;;5083176;28;20042;-61
2021/08/08 09:54:22;;;;;;;2.00;0.75;;;;;;;;;;5080417;28;20685;-61
2021/08/08 09:56:57;;;;;;;0.60;0.50;;;;;;;;;;5065801;28;20030;-61
2021/08/08 09:59:24;;;;;;;1.60;0.50;;;;;;;;;;5071048;28;20029;-61
2021/08/08 10:01:49;;;;;;;2.20;0.63;;;;;;;;;;5069468;28;20035;-61
2021/08/08 10:04:15;;;;;;;4.20;0.82;;;;;;;;;;5067746;28;20473;-61
2021/08/08 10:06:42;;;;;;;1.65;0.52;;;;;;;;;;5062460;28;20420;-61
2021/08/08 10:09:11;;;;;;;0.90;0.43;;;;;;;;;;5060843;28;20144;-61
2021/08/08 10:11:37;;;;;;;3.17;0.95;;;;;;;;;;5058166;28;20045;-61
2021/08/08 10:14:03;;;;;;;0.90;0.60;;;;;;;;;;5064642;28;20691;-61
2021/08/08 10:16:33;;;;;;;1.60;0.68;;;;;;;;;;5076075;28;20043;-61
2021/08/08 10:19:01;;;;;;;2.75;1.13;;;;;;;;;;5066122;28;20116;-61
2021/08/08 10:21:28;;;;;;;1.73;1.48;;;;;;;;;;5065898;28;20457;-61
2021/08/08 10:23:56;;;;;;;0.93;0.40;;;;;;;;;;5089139;28;20035;-61
2021/08/08 10:26:22;;;;;;;2.20;0.70;;;;;;;;;;5066924;28;20029;-61
2021/08/08 10:28:49;;;;;;;1.73;0.50;;;;;;;;;;5069951;28;20453;-61
2021/08/08 10:31:17;;;;;;;1.52;0.70;;;;;;;;;;5085211;28;20040;-61
2021/08/08 10:33:48;;;;;;;1.15;0.50;;;;;;;;;;5079459;28;20051;-61
2021/08/08 10:36:21;;;;;;;1.27;0.70;;;;;;;;;;5060604;28;20023;-61
2021/08/08 10:38:48;;;;;;;0.85;0.50;;;;;;;;;;5061397;28;20033;-62
2021/08/08 10:41:14;;;;;;;2.42;0.60;;;;;;;;;;5084437;28;20036;-62
2021/08/08 10:43:44;;;;;;;1.45;0.60;;;;;;;;;;5063223;28;20020;-62
2021/08/08 10:46:10;;;;;;;5.30;1.58;;;;;;;;;;5070829;28;20519;-62
2021/08/08 10:48:37;;;;;;;1.85;0.65;;;;;;;;;;5072009;28;20025;-62
2021/08/08 10:51:15;;;;;;;2.22;0.98;;;;;;;;;;5068921;28;20476;-62
2021/08/08 10:53:41;;;;;;;1.27;1.00;;;;;;;;;;5063174;28;20497;-62
2021/08/08 10:56:08;;;;;;;1.40;0.80;;;;;;;;;;5075134;28;20032;-62
2021/08/08 10:58:36;;;;;;;0.80;0.50;;;;;;;;;;5063308;28;20433;-62
2021/08/08 11:01:04;;;;;;;4.28;0.80;;;;;;;;;;5089173;28;20057;-61
2021/08/08 11:03:30;;;;;;;1.65;0.65;;;;;;;;;;5080847;28;20054;-62
2021/08/08 11:05:56;;;;;;;2.92;0.75;;;;;;;;;;5065646;28;20033;-62
2021/08/08 11:08:24;;;;;;;1.48;0.88;;;;;;;;;;5077054;28;20085;-62
2021/08/08 11:10:50;;;;;;;0.75;0.57;;;;;;;;;;5068222;28;20053;-62
2021/08/08 11:13:19;;;;;;;1.48;0.60;;;;;;;;;;5078617;28;20025;-62
2021/08/08 11:15:46;;;;;;;0.90;0.52;;;;;;;;;;5074344;28;20043;-62
2021/08/08 11:18:13;;;;;;;2.17;0.70;;;;;;;;;;5065078;28;20020;-61
2021/08/08 11:20:39;;;;;;;2.05;0.68;;;;;;;;;;5066523;28;20473;-62
2021/08/08 11:23:05;;;;;;;2.20;0.70;;;;;;;;;;5070181;28;20116;-62
2021/08/08 11:25:37;;;;;;;2.20;0.70;;;;;;;;;;5087824;28;20020;-61
2021/08/08 11:28:03;;;;;;;3.42;0.60;;;;;;;;;;5078190;28;20021;-62
2021/08/08 11:30:37;;;;;;;1.20;0.60;;;;;;;;;;5078511;28;20028;-62
2021/08/08 11:33:03;;;;;;;1.50;0.95;;;;;;;;;;5088731;28;20027;-62
2021/08/08 11:35:29;;;;;;;3.25;1.13;;;;;;;;;;5072200;28;20032;-62
2021/08/08 11:37:56;;;;;;;3.33;0.80;;;;;;;;;;5065160;28;20090;-62
2021/08/08 11:40:23;;;;;;;1.83;0.70;;;;;;;;;;5069754;28;20030;-62
2021/08/08 11:43:09;;;;;;;3.00;0.63;;;;;;;;;;5079440;28;20020;-62
2021/08/08 11:45:37;;;;;;;1.83;0.75;;;;;;;;;;5087850;28;20499;-62
2021/08/08 11:48:04;;;;;;;3.97;0.90;;;;;;;;;;5095390;28;20099;-62
2021/08/08 11:50:30;;;;;;;1.52;0.57;;;;;;;;;;5089216;28;20039;-62
2021/08/08 11:53:00;;;;;;;2.63;0.55;;;;;;;;;;5078507;28;20078;-62
2021/08/08 11:55:27;;;;;;;2.25;0.70;;;;;;;;;;5080796;28;20039;-62
2021/08/08 11:58:03;;;;;;;1.10;0.50;;;;;;;;;;5086532;28;20383;-62
2021/08/08 12:00:30;;;;;;;1.38;0.75;;;;;;;;;;5087869;28;20031;-62
2021/08/08 12:02:56;;;;;;;2.05;0.52;;;;;;;;;;5095427;28;20103;-62
2021/08/08 12:05:22;;;;;;;1.65;0.50;;;;;;;;;;5070853;28;20081;-62
2021/08/08 12:07:49;;;;;;;1.80;0.70;;;;;;;;;;5064431;28;20037;-62
2021/08/08 12:10:24;;;;;;;3.75;1.02;;;;;;;;;;5064483;28;20188;-62
2021/08/08 12:12:50;;;;;;;1.90;0.70;;;;;;;;;;5065346;28;20025;-62
2021/08/08 12:15:16;;;;;;;2.22;0.73;;;;;;;;;;5073948;28;20456;-62
2021/08/08 12:17:42;;;;;;;2.08;0.82;;;;;;;;;;5072759;28;20029;-62
2021/08/08 12:20:09;;;;;;;2.30;0.85;;;;;;;;;;5093978;28;20055;-62
2021/08/08 12:22:36;;;;;;;5.30;0.52;;;;;;;;;;5069808;28;20068;-62
2021/08/08 12:25:04;;;;;;;1.35;0.50;;;;;;;;;;5081255;28;20020;-62
2021/08/08 12:27:34;;;;;;;3.05;0.73;;;;;;;;;;5085495;28;20124;-62
2021/08/08 12:30:01;;;;;;;4.07;0.70;;;;;;;;;;5058297;28;20024;-62
2021/08/08 12:32:33;;;;;;;6.72;0.77;;;;;;;;;;5055426;28;20029;-62
2021/08/08 12:35:05;;;;;;;1.37;0.50;;;;;;;;;;5057469;28;20025;-62
2021/08/08 12:37:31;;;;;;;4.60;0.68;;;;;;;;;;5058590;28;20029;-62
2021/08/08 12:40:07;;;;;;;1.13;0.50;;;;;;;;;;5055378;28;20017;-62
2021/08/08 12:42:33;;;;;;;4.20;1.02;;;;;;;;;;5061888;28;20039;-62
2021/08/08 12:45:07;;;;;;;8.65;0.80;;;;;;;;;;5060069;28;20024;-62
2021/08/08 12:47:35;;;;;;;1.25;0.50;;;;;;;;;;5053513;28;20040;-62
2021/08/08 12:50:01;;;;;;;0.98;0.50;;;;;;;;;;5058521;28;20032;-62
2021/08/08 12:52:27;;;;;;;1.73;0.65;;;;;;;;;;5056073;28;20381;-62
2021/08/08 12:54:53;;;;;;;6.70;0.60;;;;;;;;;;5056572;28;20032;-62
2021/08/08 12:57:19;;;;;;;2.13;0.50;;;;;;;;;;5051620;28;20033;-62
2021/08/08 12:59:45;;;;;;;4.63;0.77;;;;;;;;;;5057130;28;20033;-62
2021/08/08 13:02:11;;;;;;;1.95;0.40;;;;;;;;;;5054877;28;20051;-62
2021/08/08 13:04:37;;;;;;;2.03;0.50;;;;;;;;;;5059763;28;20025;-62
2021/08/08 13:07:03;;;;;;;3.03;0.82;;;;;;;;;;5055219;28;20104;-62
2021/08/08 13:09:29;;;;;;;4.45;1.00;;;;;;;;;;5055213;28;20025;-62
2021/08/08 13:11:58;;;;;;;2.00;0.75;;;;;;;;;;5056691;28;20044;-62
2021/08/08 13:14:24;;;;;;;3.40;0.50;;;;;;;;;;5058546;28;20111;-62
2021/08/08 13:16:49;;;;;;;2.63;0.73;;;;;;;;;;5057998;28;20119;-62
2021/08/08 13:19:15;;;;;;;2.38;0.50;;;;;;;;;;5055217;28;20033;-62
2021/08/08 13:21:41;;;;;;;3.28;0.68;;;;;;;;;;5055703;28;20478;-63
2021/08/08 13:24:07;;;;;;;4.00;0.43;;;;;;;;;;5060345;28;20079;-62
2021/08/08 13:26:33;;;;;;;2.90;0.80;;;;;;;;;;5057745;28;20405;-62
2021/08/08 13:29:00;;;;;;;1.70;0.60;;;;;;;;;;5053299;28;20028;-62
2021/08/08 13:31:26;;;;;;;1.88;0.40;;;;;;;;;;5055935;28;20100;-62
2021/08/08 13:33:52;;;;;;;1.75;0.60;;;;;;;;;;5057719;28;20029;-62
2021/08/08 13:36:18;;;;;;;2.22;0.68;;;;;;;;;;5053053;28;20024;-62
2021/08/08 13:38:44;;;;;;;1.45;0.50;;;;;;;;;;5055364;28;20021;-62
2021/08/08 13:41:10;;;;;;;3.08;0.73;;;;;;;;;;5055668;28;20059;-62
2021/08/08 13:43:36;;;;;;;1.38;0.40;;;;;;;;;;5053652;28;20153;-62
2021/08/08 13:46:02;;;;;;;1.67;0.43;;;;;;;;;;5056961;28;20476;-62
2021/08/08 13:48:28;;;;;;;3.40;0.50;;;;;;;;;;5056526;28;20024;-62
2021/08/08 13:50:54;;;;;;;1.77;0.50;;;;;;;;;;5060590;28;20020;-62
2021/08/08 13:53:20;;;;;;;2.97;0.68;;;;;;;;;;5056391;28;20124;-62
2021/08/08 13:55:46;;;;;;;5.28;0.55;;;;;;;;;;5056105;28;20032;-62
2021/08/08 13:58:12;;;;;;;1.23;0.70;;;;;;;;;;5058976;28;20091;-62
2021/08/08 14:00:38;;;;;;;2.90;0.60;;;;;;;;;;5052481;28;20028;-62
2021/08/08 14:03:04;;;;;;;1.80;0.50;;;;;;;;;;5056781;28;20020;-62
2021/08/08 14:05:30;;;;;;;1.30;0.30;;;;;;;;;;5056576;28;20044;-62
2021/08/08 14:07:56;;;;;;;2.60;0.35;;;;;;;;;;5055196;28;20527;-62
2021/08/08 14:10:28;;;;;;;1.02;0.28;;;;;;;;;;5041637;28;20784;-60
2021/08/08 14:12:54;;;;;;;1.17;0.30;;;;;;;;;;5041102;28;20043;-60
2021/08/08 14:15:20;;;;;;;1.83;0.50;;;;;;;;;;5038102;28;20030;-60
2021/08/08 14:17:46;;;;;;;2.00;0.52;;;;;;;;;;5041303;28;20091;-59
2021/08/08 14:20:14;;;;;;;3.80;0.60;;;;;;;;;;5042848;28;20022;-60
2021/08/08 14:22:40;;;;;;;1.02;0.30;;;;;;;;;;5049400;28;20029;-59
2021/08/08 14:25:06;;;;;;;1.48;0.45;;;;;;;;;;5043412;28;20413;-59
2021/08/08 14:27:32;;;;;;;0.65;0.32;;;;;;;;;;5041079;28;20026;-59
2021/08/08 14:29:58;;;;;;;0.93;0.40;;;;;;;;;;5048545;28;20031;-60
2021/08/08 14:32:24;;;;;;;0.95;0.50;;;;;;;;;;5049279;28;20021;-59
2021/08/08 14:34:50;;;;;;;3.17;0.68;;;;;;;;;;5044357;28;20076;-59
2021/08/08 14:37:16;;;;;;;1.38;0.60;;;;;;;;;;5045362;28;20098;-59
2021/08/08 14:39:42;;;;;;;0.90;0.50;;;;;;;;;;5028107;28;20030;-59